createdAt,value
2019-03-22T00:00:55.792Z,3.10
2019-03-22T00:05:52.787Z,3.10
2019-03-22T00:10:49.709Z,2.90
2019-03-22T00:15:46.963Z,2.90
2019-03-22T00:20:45.268Z,2.70
2019-03-22T00:25:42.338Z,2.60
2019-03-22T00:30:40.566Z,2.40
2019-03-22T00:35:37.352Z,2.60
2019-03-22T00:40:34.066Z,2.50
2019-03-22T00:45:30.936Z,2.40
2019-03-22T00:50:27.701Z,2.40
2019-03-22T00:55:24.313Z,2.40
2019-03-22T01:00:23.979Z,2.30
2019-03-22T01:05:20.668Z,2.10
2019-03-22T01:10:20.192Z,2.10
2019-03-22T01:15:16.994Z,2.20
2019-03-22T01:20:15.892Z,2.30
2019-03-22T01:25:13.279Z,2.30
2019-03-22T01:30:11.287Z,2.10
2019-03-22T01:35:09.750Z,2.10
2019-03-22T01:40:12.130Z,2.00
2019-03-22T01:45:09.758Z,1.80
2019-03-22T01:50:08.353Z,1.90
2019-03-22T01:55:05.273Z,2.00
2019-03-22T02:00:02.367Z,2.00
2019-03-22T02:04:59.162Z,1.90
2019-03-22T02:09:55.916Z,1.80
2019-03-22T02:14:53.255Z,1.70
2019-03-22T02:19:54.607Z,1.80
2019-03-22T02:24:52.811Z,1.70
2019-03-22T02:29:49.939Z,1.80
2019-03-22T02:34:46.586Z,1.90
2019-03-22T02:39:43.409Z,1.70
2019-03-22T02:44:40.481Z,1.60
2019-03-22T02:49:37.264Z,1.50
2019-03-22T02:54:33.976Z,1.40
2019-03-22T02:59:30.758Z,1.50
2019-03-22T03:04:27.617Z,1.70
2019-03-22T03:09:24.438Z,1.70
2019-03-22T03:14:21.991Z,1.40
2019-03-22T03:19:20.770Z,1.20
2019-03-22T03:24:22.158Z,1.20
2019-03-22T03:29:18.981Z,1.30
2019-03-22T03:34:18.498Z,1.30
2019-03-22T03:39:15.223Z,1.10
2019-03-22T03:44:13.910Z,1.00
2019-03-22T03:49:11.070Z,1.10
2019-03-22T03:54:08.033Z,1.20
2019-03-22T03:59:06.740Z,1.20
2019-03-22T04:04:04.124Z,1.20
2019-03-22T04:09:02.749Z,1.20
2019-03-22T04:14:04.040Z,1.30
2019-03-22T04:19:01.142Z,1.00
2019-03-22T04:24:02.679Z,0.80
2019-03-22T04:29:07.205Z,0.60
2019-03-22T04:34:01.307Z,0.70
2019-03-22T04:39:03.861Z,0.70
2019-03-22T04:44:00.190Z,0.90
2019-03-22T04:49:06.885Z,1.10
2019-03-22T04:54:12.887Z,0.90
2019-03-22T04:59:19.815Z,0.60
2019-03-22T05:04:32.064Z,0.50
2019-03-22T05:09:58.429Z,0.70
2019-03-22T05:15:19.761Z,0.70
2019-03-22T05:20:32.430Z,0.70
2019-03-22T05:25:56.368Z,0.60
2019-03-22T05:31:58.289Z,0.50
2019-03-22T05:43:37.121Z,0.80
2019-03-22T05:48:23.798Z,0.90
2019-03-22T05:54:01.798Z,0.80
2019-03-22T05:59:43.268Z,0.90
2019-03-22T06:05:01.156Z,0.80
2019-03-22T06:10:50.197Z,1.00
2019-03-22T06:16:06.931Z,1.00
2019-03-22T06:21:37.541Z,1.10
2019-03-22T06:26:48.236Z,1.10
2019-03-22T06:31:56.856Z,1.10
2019-03-22T06:36:59.680Z,1.30
2019-03-22T06:42:58.828Z,1.70
2019-03-22T06:48:05.956Z,1.90
2019-03-22T06:53:13.757Z,2.10
2019-03-22T06:59:01.248Z,2.30
2019-03-22T07:04:04.262Z,2.40
2019-03-22T07:09:06.774Z,2.60
2019-03-22T07:14:52.718Z,2.80
2019-03-22T07:20:04.665Z,2.90
2019-03-22T07:31:14.356Z,3.30
2019-03-22T07:36:11.078Z,3.60
2019-03-22T07:41:10.289Z,3.90
2019-03-22T07:46:09.597Z,4.20
2019-03-22T07:51:06.352Z,4.40
2019-03-22T07:56:09.993Z,4.80
2019-03-22T08:01:07.356Z,5.20
2019-03-22T08:06:06.249Z,5.50
2019-03-22T08:11:03.335Z,5.90
2019-03-22T08:16:00.195Z,6.20
2019-03-22T08:21:02.646Z,6.50
2019-03-22T08:31:23.228Z,6.90
2019-03-22T08:36:33.713Z,7.20
2019-03-22T08:41:33.603Z,7.40
2019-03-22T08:46:30.646Z,7.70
2019-03-22T08:51:29.842Z,7.70
2019-03-22T08:56:26.600Z,7.70
2019-03-22T09:01:24.109Z,7.70
2019-03-22T09:06:21.050Z,7.70
2019-03-22T09:11:18.296Z,7.90
2019-03-22T09:16:15.066Z,8.10
2019-03-22T09:21:12.998Z,8.10
2019-03-22T09:26:09.859Z,8.30
2019-03-22T09:31:10.642Z,8.60
2019-03-22T09:36:05.337Z,8.60
2019-03-22T09:41:02.181Z,8.70
2019-03-22T09:45:59.190Z,8.70
2019-03-22T09:50:56.269Z,8.80
2019-03-22T09:55:53.104Z,8.90
2019-03-22T10:00:50.031Z,9.00
2019-03-22T10:05:46.955Z,9.10
2019-03-22T10:10:43.632Z,9.30
2019-03-22T10:15:40.340Z,9.20
2019-03-22T10:20:37.192Z,9.10
2019-03-22T10:25:33.965Z,8.90
2019-03-22T10:30:31.021Z,9.10
2019-03-22T10:35:29.384Z,9.30
2019-03-22T10:40:26.256Z,9.50
2019-03-22T10:45:23.209Z,9.50
2019-03-22T10:50:20.499Z,9.60
2019-03-22T10:55:29.809Z,9.80
2019-03-22T11:00:19.445Z,9.90
2019-03-22T11:05:17.744Z,9.90
2019-03-22T11:10:18.393Z,9.90
2019-03-22T11:15:17.914Z,9.80
2019-03-22T11:20:16.677Z,10.00
2019-03-22T11:25:14.068Z,10.10
2019-03-22T11:30:14.560Z,10.10
2019-03-22T11:35:11.959Z,10.00
2019-03-22T11:40:11.404Z,9.90
2019-03-22T11:45:11.050Z,9.80
2019-03-22T11:50:10.572Z,9.80
2019-03-22T11:55:09.068Z,9.80
2019-03-22T12:00:09.030Z,10.10
2019-03-22T12:05:06.701Z,10.40
2019-03-22T12:10:03.645Z,10.50
2019-03-22T12:15:00.517Z,10.60
2019-03-22T12:20:00.479Z,10.80
2019-03-22T12:24:58.040Z,10.80
2019-03-22T12:29:57.920Z,10.90
2019-03-22T12:34:54.789Z,11.10
2019-03-22T12:39:51.776Z,11.10
2019-03-22T12:44:53.274Z,11.10
2019-03-22T12:50:09.190Z,11.00
2019-03-22T12:55:06.563Z,11.20
2019-03-22T13:00:04.192Z,11.40
2019-03-22T13:05:01.455Z,11.50
2019-03-22T13:09:58.283Z,11.40
2019-03-22T13:14:56.657Z,11.40
2019-03-22T13:19:53.475Z,11.20
2019-03-22T13:24:50.301Z,11.30
2019-03-22T13:29:47.484Z,11.30
2019-03-22T13:34:44.434Z,11.40
2019-03-22T13:39:41.228Z,11.50
2019-03-22T13:44:38.110Z,11.50
2019-03-22T13:49:34.874Z,11.40
2019-03-22T13:54:31.788Z,11.40
2019-03-22T13:59:33.268Z,11.40
2019-03-22T14:04:30.018Z,11.50
2019-03-22T14:09:26.747Z,11.60
2019-03-22T14:14:23.828Z,11.60
2019-03-22T14:19:20.576Z,11.60
2019-03-22T14:24:18.698Z,11.80
2019-03-22T14:29:15.862Z,12.00
2019-03-22T14:34:12.524Z,12.00
2019-03-22T14:39:10.346Z,12.00
2019-03-22T14:44:08.574Z,12.00
2019-03-22T14:49:05.654Z,12.10
2019-03-22T14:54:02.998Z,12.20
2019-03-22T14:59:03.077Z,12.20
2019-03-22T15:04:00.003Z,12.30
2019-03-22T15:08:57.132Z,12.40
2019-03-22T15:14:15.578Z,12.40
2019-03-22T15:19:29.999Z,12.30
2019-03-22T15:24:57.746Z,12.20
2019-03-22T15:30:28.898Z,12.20
2019-03-22T15:35:46.830Z,12.10
2019-03-22T15:40:43.804Z,12.00
2019-03-22T15:45:40.759Z,12.20
2019-03-22T15:50:37.490Z,12.30
2019-03-22T15:55:34.301Z,12.20
2019-03-22T16:00:31.190Z,12.10
2019-03-22T16:05:27.878Z,12.20
2019-03-22T16:10:24.644Z,12.20
2019-03-22T16:15:21.584Z,12.20
2019-03-22T16:20:18.750Z,12.10
2019-03-22T16:25:15.675Z,12.00
2019-03-22T16:30:13.372Z,12.00
2019-03-22T16:35:10.807Z,11.90
2019-03-22T16:40:11.672Z,12.00
2019-03-22T16:45:18.155Z,11.80
2019-03-22T16:50:27.685Z,11.80
2019-03-22T16:55:25.072Z,11.70
2019-03-22T17:00:26.071Z,11.60
2019-03-22T17:05:23.083Z,11.50
2019-03-22T17:10:19.964Z,11.20
2019-03-22T17:23:00.473Z,10.60
2019-03-22T17:29:24.896Z,10.40
2019-03-22T17:34:59.151Z,10.30
2019-03-22T17:39:56.035Z,10.10
2019-03-22T17:44:53.305Z,9.90
2019-03-22T17:49:50.039Z,9.70
2019-03-22T17:54:48.513Z,9.60
2019-03-22T17:59:45.313Z,9.40
2019-03-22T18:04:42.236Z,9.30
2019-03-22T18:09:39.080Z,9.20
2019-03-22T18:14:35.927Z,9.20
2019-03-22T18:19:32.780Z,9.10
2019-03-22T18:24:29.534Z,9.00
2019-03-22T18:29:27.054Z,9.00
2019-03-22T18:34:33.932Z,9.00
2019-03-22T18:39:34.271Z,8.90
2019-03-22T18:44:31.220Z,8.80
2019-03-22T18:49:39.437Z,8.60
2019-03-22T18:54:39.865Z,8.50
2019-03-22T18:59:42.397Z,8.50
2019-03-22T19:04:44.385Z,8.50
2019-03-22T19:10:45.423Z,8.50
2019-03-22T20:19:55.005Z,6.80
2019-03-22T20:24:51.668Z,6.80
2019-03-22T20:29:48.339Z,6.60
2019-03-22T20:57:01.636Z,6.00
2019-03-22T21:01:59.151Z,5.90
2019-03-22T21:06:55.809Z,5.70
2019-03-22T21:11:52.619Z,5.70
2019-03-22T21:16:49.297Z,5.90
2019-03-22T21:21:46.275Z,5.70
2019-03-22T21:26:43.736Z,5.60
2019-03-22T21:31:41.353Z,5.50
2019-03-22T21:36:38.031Z,5.40
2019-03-22T21:41:36.111Z,5.30
2019-03-22T21:46:33.014Z,5.40
2019-03-22T21:51:29.674Z,5.30
2019-03-22T21:56:29.486Z,5.10
2019-03-22T22:01:26.355Z,4.90
2019-03-22T22:06:26.860Z,5.00
2019-03-22T22:11:23.799Z,5.00
2019-03-22T22:16:25.599Z,4.90
2019-03-22T22:21:23.850Z,4.80
2019-03-22T22:26:29.912Z,4.90
2019-03-22T22:31:30.903Z,4.60
2019-03-22T22:36:34.021Z,4.50
2019-03-22T22:41:32.266Z,4.30
2019-03-22T22:46:28.896Z,4.20
2019-03-22T22:51:25.651Z,4.20
2019-03-22T22:56:22.801Z,4.30
2019-03-22T23:01:22.855Z,4.40
2019-03-22T23:13:41.526Z,4.30
2019-03-22T23:18:38.131Z,4.00
2019-03-22T23:58:58.642Z,3.40
